sensor_id;sensor_type;location;lat;lon;timestamp;P1;durP1;ratioP1;P2;durP2;ratioP2
5999;SDS011;3028;49.468;7.694;2022-12-07T00:01:12;5.25;;;4.82;;
5999;SDS011;3028;49.468;7.694;2022-12-07T00:03:21;4.32;;;4.00;;
5999;SDS011;3028;49.468;7.694;2022-12-07T00:05:23;4.78;;;4.35;;
5999;SDS011;3028;49.468;7.694;2022-12-07T00:07:25;4.28;;;3.88;;
5999;SDS011;3028;49.468;7.694;2022-12-07T00:09:28;3.80;;;3.50;;
5999;SDS011;3028;49.468;7.694;2022-12-07T00:11:30;4.38;;;3.97;;
5999;SDS011;3028;49.468;7.694;2022-12-07T00:13:32;4.82;;;4.35;;
5999;SDS011;3028;49.468;7.694;2022-12-07T00:15:34;4.07;;;3.67;;
5999;SDS011;3028;49.468;7.694;2022-12-07T00:17:36;5.03;;;4.53;;
5999;SDS011;3028;49.468;7.694;2022-12-07T00:19:38;5.25;;;4.78;;
5999;SDS011;3028;49.468;7.694;2022-12-07T00:21:40;3.85;;;3.55;;
5999;SDS011;3028;49.468;7.694;2022-12-07T00:23:42;5.97;;;4.40;;
5999;SDS011;3028;49.468;7.694;2022-12-07T00:25:45;5.25;;;4.75;;
5999;SDS011;3028;49.468;7.694;2022-12-07T00:27:49;4.90;;;4.28;;
5999;SDS011;3028;49.468;7.694;2022-12-07T00:29:50;5.47;;;4.97;;
5999;SDS011;3028;49.468;7.694;2022-12-07T00:31:52;5.43;;;4.65;;
5999;SDS011;3028;49.468;7.694;2022-12-07T00:33:54;5.50;;;5.10;;
5999;SDS011;3028;49.468;7.694;2022-12-07T00:35:57;4.53;;;4.13;;
5999;SDS011;3028;49.468;7.694;2022-12-07T00:37:59;4.00;;;3.67;;
5999;SDS011;3028;49.468;7.694;2022-12-07T00:40:01;4.63;;;4.30;;
5999;SDS011;3028;49.468;7.694;2022-12-07T00:42:03;5.55;;;4.35;;
5999;SDS011;3028;49.468;7.694;2022-12-07T00:44:08;5.15;;;4.72;;
5999;SDS011;3028;49.468;7.694;2022-12-07T00:46:10;6.03;;;4.43;;
5999;SDS011;3028;49.468;7.694;2022-12-07T00:48:13;6.05;;;5.30;;
5999;SDS011;3028;49.468;7.694;2022-12-07T00:50:15;5.80;;;5.30;;
5999;SDS011;3028;49.468;7.694;2022-12-07T00:52:16;5.18;;;4.68;;
5999;SDS011;3028;49.468;7.694;2022-12-07T00:54:18;5.80;;;5.03;;
5999;SDS011;3028;49.468;7.694;2022-12-07T00:58:29;5.43;;;4.93;;
5999;SDS011;3028;49.468;7.694;2022-12-07T01:00:30;5.47;;;4.95;;
5999;SDS011;3028;49.468;7.694;2022-12-07T01:02:32;4.55;;;4.15;;
5999;SDS011;3028;49.468;7.694;2022-12-07T01:04:34;5.25;;;4.35;;
5999;SDS011;3028;49.468;7.694;2022-12-07T01:06:36;5.13;;;4.60;;
5999;SDS011;3028;49.468;7.694;2022-12-07T01:08:38;5.28;;;4.78;;
5999;SDS011;3028;49.468;7.694;2022-12-07T01:10:39;5.80;;;4.53;;
5999;SDS011;3028;49.468;7.694;2022-12-07T01:12:41;3.85;;;3.55;;
5999;SDS011;3028;49.468;7.694;2022-12-07T01:14:43;4.47;;;4.07;;
5999;SDS011;3028;49.468;7.694;2022-12-07T01:16:45;4.75;;;4.35;;
5999;SDS011;3028;49.468;7.694;2022-12-07T01:18:47;5.57;;;5.07;;
5999;SDS011;3028;49.468;7.694;2022-12-07T01:21:06;5.50;;;5.00;;
5999;SDS011;3028;49.468;7.694;2022-12-07T01:23:12;4.57;;;4.18;;
5999;SDS011;3028;49.468;7.694;2022-12-07T01:25:14;5.28;;;4.78;;
5999;SDS011;3028;49.468;7.694;2022-12-07T01:27:16;5.72;;;4.63;;
5999;SDS011;3028;49.468;7.694;2022-12-07T01:29:17;5.45;;;4.82;;
5999;SDS011;3028;49.468;7.694;2022-12-07T01:31:20;4.80;;;4.45;;
5999;SDS011;3028;49.468;7.694;2022-12-07T01:33:24;5.78;;;5.28;;
5999;SDS011;3028;49.468;7.694;2022-12-07T01:35:28;5.70;;;5.13;;
5999;SDS011;3028;49.468;7.694;2022-12-07T01:37:33;4.28;;;3.97;;
5999;SDS011;3028;49.468;7.694;2022-12-07T01:39:39;6.15;;;5.25;;
5999;SDS011;3028;49.468;7.694;2022-12-07T01:41:40;5.82;;;5.22;;
5999;SDS011;3028;49.468;7.694;2022-12-07T01:46:14;5.50;;;5.05;;
5999;SDS011;3028;49.468;7.694;2022-12-07T01:48:16;5.68;;;4.70;;
5999;SDS011;3028;49.468;7.694;2022-12-07T01:50:21;4.22;;;3.78;;
5999;SDS011;3028;49.468;7.694;2022-12-07T01:52:24;5.82;;;5.30;;
5999;SDS011;3028;49.468;7.694;2022-12-07T01:54:28;5.18;;;4.60;;
5999;SDS011;3028;49.468;7.694;2022-12-07T01:56:30;4.78;;;4.28;;
5999;SDS011;3028;49.468;7.694;2022-12-07T01:58:33;5.05;;;4.65;;
5999;SDS011;3028;49.468;7.694;2022-12-07T02:00:35;4.85;;;4.20;;
5999;SDS011;3028;49.468;7.694;2022-12-07T02:02:38;5.72;;;5.15;;
5999;SDS011;3028;49.468;7.694;2022-12-07T02:04:50;6.78;;;6.18;;
5999;SDS011;3028;49.468;7.694;2022-12-07T02:06:55;5.93;;;5.53;;
5999;SDS011;3028;49.468;7.694;2022-12-07T02:08:58;5.28;;;4.78;;
5999;SDS011;3028;49.468;7.694;2022-12-07T02:11:00;4.65;;;4.25;;
5999;SDS011;3028;49.468;7.694;2022-12-07T02:13:06;6.38;;;5.65;;
5999;SDS011;3028;49.468;7.694;2022-12-07T02:15:20;5.43;;;4.30;;
5999;SDS011;3028;49.468;7.694;2022-12-07T02:17:32;5.20;;;4.70;;
5999;SDS011;3028;49.468;7.694;2022-12-07T02:24:13;5.72;;;5.07;;
5999;SDS011;3028;49.468;7.694;2022-12-07T02:26:23;4.85;;;4.03;;
5999;SDS011;3028;49.468;7.694;2022-12-07T02:28:36;5.22;;;4.72;;
5999;SDS011;3028;49.468;7.694;2022-12-07T02:30:46;5.10;;;4.65;;
5999;SDS011;3028;49.468;7.694;2022-12-07T02:32:55;5.47;;;4.97;;
5999;SDS011;3028;49.468;7.694;2022-12-07T02:35:28;4.45;;;4.05;;
5999;SDS011;3028;49.468;7.694;2022-12-07T02:40:34;5.30;;;3.80;;
5999;SDS011;3028;49.468;7.694;2022-12-07T02:42:50;5.72;;;5.07;;
5999;SDS011;3028;49.468;7.694;2022-12-07T02:44:53;6.75;;;5.72;;
5999;SDS011;3028;49.468;7.694;2022-12-07T02:46:59;5.03;;;4.53;;
5999;SDS011;3028;49.468;7.694;2022-12-07T02:49:03;5.35;;;4.78;;
5999;SDS011;3028;49.468;7.694;2022-12-07T02:51:05;9.23;;;5.28;;
5999;SDS011;3028;49.468;7.694;2022-12-07T02:53:27;5.25;;;4.75;;
5999;SDS011;3028;49.468;7.694;2022-12-07T02:55:41;4.22;;;3.83;;
5999;SDS011;3028;49.468;7.694;2022-12-07T02:57:51;6.00;;;5.40;;
5999;SDS011;3028;49.468;7.694;2022-12-07T03:00:07;4.50;;;4.10;;
5999;SDS011;3028;49.468;7.694;2022-12-07T03:06:31;5.18;;;4.65;;
5999;SDS011;3028;49.468;7.694;2022-12-07T03:15:45;5.30;;;4.78;;
5999;SDS011;3028;49.468;7.694;2022-12-07T03:17:51;4.70;;;4.18;;
5999;SDS011;3028;49.468;7.694;2022-12-07T03:19:54;5.78;;;4.90;;
5999;SDS011;3028;49.468;7.694;2022-12-07T03:22:00;4.80;;;4.40;;
5999;SDS011;3028;49.468;7.694;2022-12-07T03:24:06;7.88;;;5.03;;
5999;SDS011;3028;49.468;7.694;2022-12-07T03:26:12;4.70;;;4.30;;
5999;SDS011;3028;49.468;7.694;2022-12-07T03:28:16;4.47;;;4.07;;
5999;SDS011;3028;49.468;7.694;2022-12-07T03:30:20;4.38;;;3.92;;
5999;SDS011;3028;49.468;7.694;2022-12-07T03:32:34;8.48;;;4.75;;
5999;SDS011;3028;49.468;7.694;2022-12-07T03:34:50;5.00;;;4.53;;
5999;SDS011;3028;49.468;7.694;2022-12-07T03:37:10;7.30;;;5.28;;
5999;SDS011;3028;49.468;7.694;2022-12-07T03:39:23;6.00;;;5.45;;
5999;SDS011;3028;49.468;7.694;2022-12-07T03:41:31;5.30;;;4.75;;
5999;SDS011;3028;49.468;7.694;2022-12-07T03:43:35;5.10;;;4.50;;
5999;SDS011;3028;49.468;7.694;2022-12-07T03:45:38;4.07;;;3.78;;
5999;SDS011;3028;49.468;7.694;2022-12-07T03:47:47;4.72;;;4.32;;
5999;SDS011;3028;49.468;7.694;2022-12-07T03:50:04;5.32;;;4.85;;
5999;SDS011;3028;49.468;7.694;2022-12-07T03:56:35;6.28;;;5.68;;
5999;SDS011;3028;49.468;7.694;2022-12-07T03:58:38;5.72;;;5.22;;
5999;SDS011;3028;49.468;7.694;2022-12-07T04:00:41;5.45;;;4.95;;
5999;SDS011;3028;49.468;7.694;2022-12-07T04:02:44;5.65;;;4.97;;
5999;SDS011;3028;49.468;7.694;2022-12-07T04:04:45;5.82;;;5.15;;
5999;SDS011;3028;49.468;7.694;2022-12-07T04:06:47;6.22;;;5.30;;
5999;SDS011;3028;49.468;7.694;2022-12-07T04:08:49;5.68;;;5.13;;
5999;SDS011;3028;49.468;7.694;2022-12-07T04:10:51;5.85;;;5.35;;
5999;SDS011;3028;49.468;7.694;2022-12-07T04:12:53;6.55;;;5.30;;
5999;SDS011;3028;49.468;7.694;2022-12-07T04:14:54;6.10;;;5.20;;
5999;SDS011;3028;49.468;7.694;2022-12-07T04:16:57;4.78;;;3.88;;
5999;SDS011;3028;49.468;7.694;2022-12-07T04:18:59;9.88;;;5.28;;
5999;SDS011;3028;49.468;7.694;2022-12-07T04:21:01;6.18;;;4.78;;
5999;SDS011;3028;49.468;7.694;2022-12-07T04:23:03;4.70;;;4.10;;
5999;SDS011;3028;49.468;7.694;2022-12-07T04:25:05;7.80;;;5.10;;
5999;SDS011;3028;49.468;7.694;2022-12-07T04:27:06;4.85;;;4.45;;
5999;SDS011;3028;49.468;7.694;2022-12-07T04:29:09;4.88;;;4.35;;
5999;SDS011;3028;49.468;7.694;2022-12-07T04:31:11;6.03;;;5.43;;
5999;SDS011;3028;49.468;7.694;2022-12-07T04:33:13;5.57;;;5.07;;
5999;SDS011;3028;49.468;7.694;2022-12-07T04:35:14;5.78;;;5.28;;
5999;SDS011;3028;49.468;7.694;2022-12-07T04:37:16;7.35;;;4.68;;
5999;SDS011;3028;49.468;7.694;2022-12-07T04:41:28;5.40;;;4.97;;
5999;SDS011;3028;49.468;7.694;2022-12-07T04:43:30;5.35;;;4.80;;
5999;SDS011;3028;49.468;7.694;2022-12-07T04:45:31;5.93;;;4.80;;
5999;SDS011;3028;49.468;7.694;2022-12-07T04:47:33;6.90;;;6.20;;
5999;SDS011;3028;49.468;7.694;2022-12-07T04:49:38;6.43;;;5.88;;
5999;SDS011;3028;49.468;7.694;2022-12-07T04:51:44;7.57;;;6.18;;
5999;SDS011;3028;49.468;7.694;2022-12-07T04:53:46;4.95;;;4.45;;
5999;SDS011;3028;49.468;7.694;2022-12-07T04:55:48;6.32;;;5.72;;
5999;SDS011;3028;49.468;7.694;2022-12-07T04:57:50;11.02;;;5.25;;
5999;SDS011;3028;49.468;7.694;2022-12-07T04:59:52;7.10;;;5.18;;
5999;SDS011;3028;49.468;7.694;2022-12-07T05:01:53;5.15;;;4.72;;
5999;SDS011;3028;49.468;7.694;2022-12-07T05:03:55;5.88;;;5.32;;
5999;SDS011;3028;49.468;7.694;2022-12-07T05:05:57;6.68;;;6.07;;
5999;SDS011;3028;49.468;7.694;2022-12-07T05:07:59;5.80;;;5.28;;
5999;SDS011;3028;49.468;7.694;2022-12-07T05:10:01;6.50;;;5.78;;
5999;SDS011;3028;49.468;7.694;2022-12-07T05:12:03;5.40;;;5.00;;
5999;SDS011;3028;49.468;7.694;2022-12-07T05:14:16;7.88;;;6.57;;
5999;SDS011;3028;49.468;7.694;2022-12-07T05:16:18;7.13;;;5.68;;
5999;SDS011;3028;49.468;7.694;2022-12-07T05:18:20;6.25;;;5.70;;
5999;SDS011;3028;49.468;7.694;2022-12-07T05:20:22;5.97;;;4.75;;
5999;SDS011;3028;49.468;7.694;2022-12-07T05:22:24;5.85;;;5.35;;
5999;SDS011;3028;49.468;7.694;2022-12-07T05:24:29;6.43;;;5.47;;
5999;SDS011;3028;49.468;7.694;2022-12-07T05:26:31;6.25;;;5.65;;
5999;SDS011;3028;49.468;7.694;2022-12-07T05:28:33;6.38;;;5.78;;
5999;SDS011;3028;49.468;7.694;2022-12-07T05:30:34;7.53;;;6.82;;
5999;SDS011;3028;49.468;7.694;2022-12-07T05:32:36;13.40;;;6.05;;
5999;SDS011;3028;49.468;7.694;2022-12-07T05:34:38;12.65;;;7.03;;
5999;SDS011;3028;49.468;7.694;2022-12-07T05:36:40;6.57;;;5.80;;
5999;SDS011;3028;49.468;7.694;2022-12-07T05:38:42;6.82;;;6.15;;
5999;SDS011;3028;49.468;7.694;2022-12-07T05:40:43;6.85;;;6.22;;
5999;SDS011;3028;49.468;7.694;2022-12-07T05:42:45;6.90;;;5.32;;
5999;SDS011;3028;49.468;7.694;2022-12-07T05:44:47;6.22;;;5.65;;
5999;SDS011;3028;49.468;7.694;2022-12-07T05:46:49;8.07;;;6.70;;
5999;SDS011;3028;49.468;7.694;2022-12-07T05:48:50;6.45;;;5.68;;
5999;SDS011;3028;49.468;7.694;2022-12-07T05:50:52;7.88;;;7.15;;
5999;SDS011;3028;49.468;7.694;2022-12-07T05:52:54;6.82;;;6.28;;
5999;SDS011;3028;49.468;7.694;2022-12-07T05:54:56;6.63;;;5.85;;
5999;SDS011;3028;49.468;7.694;2022-12-07T05:56:58;6.95;;;6.30;;
5999;SDS011;3028;49.468;7.694;2022-12-07T05:58:59;6.57;;;5.88;;
5999;SDS011;3028;49.468;7.694;2022-12-07T06:01:20;6.93;;;6.22;;
5999;SDS011;3028;49.468;7.694;2022-12-07T06:03:21;6.90;;;6.30;;
5999;SDS011;3028;49.468;7.694;2022-12-07T06:05:24;9.15;;;6.53;;
5999;SDS011;3028;49.468;7.694;2022-12-07T06:07:25;6.75;;;6.20;;
5999;SDS011;3028;49.468;7.694;2022-12-07T06:09:27;5.85;;;5.35;;
5999;SDS011;3028;49.468;7.694;2022-12-07T06:11:29;6.30;;;5.53;;
5999;SDS011;3028;49.468;7.694;2022-12-07T06:13:50;7.70;;;7.05;;
5999;SDS011;3028;49.468;7.694;2022-12-07T06:15:55;9.95;;;6.53;;
5999;SDS011;3028;49.468;7.694;2022-12-07T06:17:57;7.55;;;6.72;;
5999;SDS011;3028;49.468;7.694;2022-12-07T06:20:00;8.23;;;6.85;;
5999;SDS011;3028;49.468;7.694;2022-12-07T06:22:02;7.57;;;6.88;;
5999;SDS011;3028;49.468;7.694;2022-12-07T06:24:05;6.85;;;6.15;;
5999;SDS011;3028;49.468;7.694;2022-12-07T06:26:08;7.68;;;6.97;;
5999;SDS011;3028;49.468;7.694;2022-12-07T06:28:10;6.85;;;6.18;;
5999;SDS011;3028;49.468;7.694;2022-12-07T06:30:12;7.97;;;6.68;;
5999;SDS011;3028;49.468;7.694;2022-12-07T06:32:14;7.70;;;6.93;;
5999;SDS011;3028;49.468;7.694;2022-12-07T06:34:19;7.10;;;6.43;;
5999;SDS011;3028;49.468;7.694;2022-12-07T06:36:21;7.90;;;7.13;;
5999;SDS011;3028;49.468;7.694;2022-12-07T06:38:27;8.75;;;7.68;;
5999;SDS011;3028;49.468;7.694;2022-12-07T06:40:29;9.00;;;6.93;;
5999;SDS011;3028;49.468;7.694;2022-12-07T06:42:31;8.00;;;7.30;;
5999;SDS011;3028;49.468;7.694;2022-12-07T06:44:33;11.23;;;8.02;;
5999;SDS011;3028;49.468;7.694;2022-12-07T06:46:35;8.90;;;7.85;;
5999;SDS011;3028;49.468;7.694;2022-12-07T06:48:38;11.20;;;8.38;;
5999;SDS011;3028;49.468;7.694;2022-12-07T06:50:39;9.85;;;8.77;;
5999;SDS011;3028;49.468;7.694;2022-12-07T06:52:41;9.90;;;8.90;;
5999;SDS011;3028;49.468;7.694;2022-12-07T06:54:44;8.63;;;7.72;;
5999;SDS011;3028;49.468;7.694;2022-12-07T06:56:46;8.52;;;7.53;;
5999;SDS011;3028;49.468;7.694;2022-12-07T06:58:48;8.77;;;7.50;;
5999;SDS011;3028;49.468;7.694;2022-12-07T07:00:51;9.18;;;8.38;;
5999;SDS011;3028;49.468;7.694;2022-12-07T07:02:53;9.02;;;8.23;;
5999;SDS011;3028;49.468;7.694;2022-12-07T07:04:55;9.93;;;8.95;;
5999;SDS011;3028;49.468;7.694;2022-12-07T07:06:57;8.38;;;7.57;;
5999;SDS011;3028;49.468;7.694;2022-12-07T07:09:01;7.95;;;7.25;;
5999;SDS011;3028;49.468;7.694;2022-12-07T07:11:06;8.93;;;8.02;;
5999;SDS011;3028;49.468;7.694;2022-12-07T07:13:09;7.95;;;7.18;;
5999;SDS011;3028;49.468;7.694;2022-12-07T07:15:11;9.40;;;8.65;;
5999;SDS011;3028;49.468;7.694;2022-12-07T07:17:13;9.13;;;8.27;;
5999;SDS011;3028;49.468;7.694;2022-12-07T07:19:15;9.80;;;8.80;;
5999;SDS011;3028;49.468;7.694;2022-12-07T07:21:17;8.63;;;7.82;;
5999;SDS011;3028;49.468;7.694;2022-12-07T07:23:20;8.27;;;7.40;;
5999;SDS011;3028;49.468;7.694;2022-12-07T07:25:23;9.40;;;7.35;;
5999;SDS011;3028;49.468;7.694;2022-12-07T07:27:25;8.77;;;7.97;;
5999;SDS011;3028;49.468;7.694;2022-12-07T07:29:27;11.63;;;7.78;;
5999;SDS011;3028;49.468;7.694;2022-12-07T07:31:29;9.73;;;7.65;;
5999;SDS011;3028;49.468;7.694;2022-12-07T07:33:31;9.02;;;8.13;;
5999;SDS011;3028;49.468;7.694;2022-12-07T07:35:33;8.05;;;7.30;;
5999;SDS011;3028;49.468;7.694;2022-12-07T07:37:36;9.75;;;8.82;;
5999;SDS011;3028;49.468;7.694;2022-12-07T07:39:38;9.25;;;8.35;;
5999;SDS011;3028;49.468;7.694;2022-12-07T07:41:40;8.43;;;7.60;;
5999;SDS011;3028;49.468;7.694;2022-12-07T07:43:42;10.63;;;8.63;;
5999;SDS011;3028;49.468;7.694;2022-12-07T07:45:44;9.07;;;8.18;;
5999;SDS011;3028;49.468;7.694;2022-12-07T07:47:47;8.90;;;8.07;;
5999;SDS011;3028;49.468;7.694;2022-12-07T07:49:50;8.85;;;8.00;;
5999;SDS011;3028;49.468;7.694;2022-12-07T07:51:52;8.55;;;7.65;;
5999;SDS011;3028;49.468;7.694;2022-12-07T07:53:54;8.52;;;7.80;;
5999;SDS011;3028;49.468;7.694;2022-12-07T07:55:56;8.48;;;7.57;;
5999;SDS011;3028;49.468;7.694;2022-12-07T07:57:59;7.50;;;6.32;;
5999;SDS011;3028;49.468;7.694;2022-12-07T08:00:04;8.70;;;7.38;;
5999;SDS011;3028;49.468;7.694;2022-12-07T08:02:09;8.27;;;7.43;;
5999;SDS011;3028;49.468;7.694;2022-12-07T08:04:15;7.93;;;7.15;;
5999;SDS011;3028;49.468;7.694;2022-12-07T08:06:17;8.05;;;7.25;;
5999;SDS011;3028;49.468;7.694;2022-12-07T08:08:19;7.80;;;6.97;;
5999;SDS011;3028;49.468;7.694;2022-12-07T08:10:21;9.20;;;8.30;;
5999;SDS011;3028;49.468;7.694;2022-12-07T08:12:23;12.10;;;8.82;;
5999;SDS011;3028;49.468;7.694;2022-12-07T08:14:24;9.48;;;8.57;;
5999;SDS011;3028;49.468;7.694;2022-12-07T08:16:31;12.65;;;8.02;;
5999;SDS011;3028;49.468;7.694;2022-12-07T08:18:48;9.05;;;8.13;;
5999;SDS011;3028;49.468;7.694;2022-12-07T08:20:50;14.35;;;8.88;;
5999;SDS011;3028;49.468;7.694;2022-12-07T08:22:52;10.13;;;9.13;;
5999;SDS011;3028;49.468;7.694;2022-12-07T08:24:57;10.00;;;9.05;;
5999;SDS011;3028;49.468;7.694;2022-12-07T08:27:00;11.88;;;10.77;;
5999;SDS011;3028;49.468;7.694;2022-12-07T08:29:02;11.35;;;10.27;;
5999;SDS011;3028;49.468;7.694;2022-12-07T08:31:07;10.98;;;9.93;;
5999;SDS011;3028;49.468;7.694;2022-12-07T08:33:19;11.73;;;10.63;;
5999;SDS011;3028;49.468;7.694;2022-12-07T08:35:24;9.93;;;8.65;;
5999;SDS011;3028;49.468;7.694;2022-12-07T08:37:26;9.13;;;8.23;;
5999;SDS011;3028;49.468;7.694;2022-12-07T08:39:28;10.23;;;9.32;;
5999;SDS011;3028;49.468;7.694;2022-12-07T08:41:32;8.20;;;7.40;;
5999;SDS011;3028;49.468;7.694;2022-12-07T08:43:35;9.27;;;8.38;;
5999;SDS011;3028;49.468;7.694;2022-12-07T08:45:38;8.68;;;7.75;;
5999;SDS011;3028;49.468;7.694;2022-12-07T08:47:43;14.18;;;12.50;;
5999;SDS011;3028;49.468;7.694;2022-12-07T08:49:48;11.65;;;10.50;;
5999;SDS011;3028;49.468;7.694;2022-12-07T08:51:50;10.57;;;9.70;;
5999;SDS011;3028;49.468;7.694;2022-12-07T08:53:52;10.50;;;9.35;;
5999;SDS011;3028;49.468;7.694;2022-12-07T08:55:55;8.38;;;7.47;;
5999;SDS011;3028;49.468;7.694;2022-12-07T08:57:58;8.57;;;7.78;;
5999;SDS011;3028;49.468;7.694;2022-12-07T09:00:00;11.70;;;6.97;;
5999;SDS011;3028;49.468;7.694;2022-12-07T09:02:03;7.57;;;6.85;;
5999;SDS011;3028;49.468;7.694;2022-12-07T09:04:06;8.32;;;7.53;;
5999;SDS011;3028;49.468;7.694;2022-12-07T09:06:08;8.35;;;7.55;;
5999;SDS011;3028;49.468;7.694;2022-12-07T09:08:10;8.18;;;7.38;;
5999;SDS011;3028;49.468;7.694;2022-12-07T09:10:12;9.02;;;8.05;;
5999;SDS011;3028;49.468;7.694;2022-12-07T09:12:14;15.00;;;8.93;;
5999;SDS011;3028;49.468;7.694;2022-12-07T09:14:15;7.82;;;7.13;;
5999;SDS011;3028;49.468;7.694;2022-12-07T09:16:18;13.80;;;8.70;;
5999;SDS011;3028;49.468;7.694;2022-12-07T09:18:20;10.48;;;8.55;;
5999;SDS011;3028;49.468;7.694;2022-12-07T09:20:22;9.18;;;7.03;;
5999;SDS011;3028;49.468;7.694;2022-12-07T09:22:29;9.23;;;8.35;;
5999;SDS011;3028;49.468;7.694;2022-12-07T09:24:31;9.52;;;8.57;;
5999;SDS011;3028;49.468;7.694;2022-12-07T09:26:33;7.75;;;6.95;;
5999;SDS011;3028;49.468;7.694;2022-12-07T09:28:37;9.85;;;8.93;;
5999;SDS011;3028;49.468;7.694;2022-12-07T09:30:45;8.15;;;7.32;;
5999;SDS011;3028;49.468;7.694;2022-12-07T09:33:10;6.90;;;6.18;;
5999;SDS011;3028;49.468;7.694;2022-12-07T09:35:11;8.88;;;8.07;;
5999;SDS011;3028;49.468;7.694;2022-12-07T09:37:13;7.57;;;6.80;;
5999;SDS011;3028;49.468;7.694;2022-12-07T09:39:15;8.20;;;7.40;;
5999;SDS011;3028;49.468;7.694;2022-12-07T09:41:17;8.88;;;8.07;;
5999;SDS011;3028;49.468;7.694;2022-12-07T09:43:20;8.65;;;7.78;;
5999;SDS011;3028;49.468;7.694;2022-12-07T09:45:33;8.27;;;7.22;;
5999;SDS011;3028;49.468;7.694;2022-12-07T09:47:36;7.57;;;6.88;;
5999;SDS011;3028;49.468;7.694;2022-12-07T09:49:37;8.52;;;7.63;;
5999;SDS011;3028;49.468;7.694;2022-12-07T09:51:39;7.47;;;6.78;;
5999;SDS011;3028;49.468;7.694;2022-12-07T09:53:41;8.73;;;7.57;;
5999;SDS011;3028;49.468;7.694;2022-12-07T09:55:43;8.10;;;7.40;;
5999;SDS011;3028;49.468;7.694;2022-12-07T09:57:45;9.07;;;8.20;;
5999;SDS011;3028;49.468;7.694;2022-12-07T09:59:47;7.80;;;6.50;;
5999;SDS011;3028;49.468;7.694;2022-12-07T10:01:49;7.10;;;6.32;;
5999;SDS011;3028;49.468;7.694;2022-12-07T10:03:52;7.13;;;6.43;;
5999;SDS011;3028;49.468;7.694;2022-12-07T10:05:56;7.93;;;6.75;;
5999;SDS011;3028;49.468;7.694;2022-12-07T10:07:58;7.55;;;6.82;;
5999;SDS011;3028;49.468;7.694;2022-12-07T10:10:02;7.72;;;6.30;;
5999;SDS011;3028;49.468;7.694;2022-12-07T10:12:11;8.63;;;7.72;;
5999;SDS011;3028;49.468;7.694;2022-12-07T10:14:13;7.70;;;7.00;;
5999;SDS011;3028;49.468;7.694;2022-12-07T10:18:30;7.95;;;7.15;;
5999;SDS011;3028;49.468;7.694;2022-12-07T10:20:34;6.05;;;5.45;;
5999;SDS011;3028;49.468;7.694;2022-12-07T10:22:36;9.77;;;7.78;;
5999;SDS011;3028;49.468;7.694;2022-12-07T10:24:38;7.90;;;7.20;;
5999;SDS011;3028;49.468;7.694;2022-12-07T10:28:50;7.03;;;6.32;;
5999;SDS011;3028;49.468;7.694;2022-12-07T10:30:56;7.25;;;6.43;;
5999;SDS011;3028;49.468;7.694;2022-12-07T10:33:00;7.85;;;7.15;;
5999;SDS011;3028;49.468;7.694;2022-12-07T10:35:18;8.13;;;7.32;;
5999;SDS011;3028;49.468;7.694;2022-12-07T10:37:28;7.30;;;6.57;;
5999;SDS011;3028;49.468;7.694;2022-12-07T10:39:30;8.05;;;7.22;;
5999;SDS011;3028;49.468;7.694;2022-12-07T10:41:54;6.55;;;5.32;;
5999;SDS011;3028;49.468;7.694;2022-12-07T10:44:00;7.40;;;6.60;;
5999;SDS011;3028;49.468;7.694;2022-12-07T10:46:13;6.55;;;5.85;;
5999;SDS011;3028;49.468;7.694;2022-12-07T10:55:41;7.43;;;6.03;;
5999;SDS011;3028;49.468;7.694;2022-12-07T11:00:54;6.18;;;5.10;;
5999;SDS011;3028;49.468;7.694;2022-12-07T11:10:21;6.97;;;6.00;;
5999;SDS011;3028;49.468;7.694;2022-12-07T11:14:54;6.35;;;5.75;;
5999;SDS011;3028;49.468;7.694;2022-12-07T11:21:35;6.07;;;4.97;;
5999;SDS011;3028;49.468;7.694;2022-12-07T11:37:25;6.18;;;5.57;;
5999;SDS011;3028;49.468;7.694;2022-12-07T11:39:41;7.32;;;6.72;;
5999;SDS011;3028;49.468;7.694;2022-12-07T11:41:48;5.28;;;4.78;;
5999;SDS011;3028;49.468;7.694;2022-12-07T11:46:14;7.05;;;6.25;;
5999;SDS011;3028;49.468;7.694;2022-12-07T11:48:33;6.32;;;5.35;;
5999;SDS011;3028;49.468;7.694;2022-12-07T11:50:44;5.57;;;5.07;;
5999;SDS011;3028;49.468;7.694;2022-12-07T11:52:51;7.22;;;5.55;;
5999;SDS011;3028;49.468;7.694;2022-12-07T11:57:33;6.18;;;5.50;;
5999;SDS011;3028;49.468;7.694;2022-12-07T11:59:40;5.60;;;5.10;;
5999;SDS011;3028;49.468;7.694;2022-12-07T12:02:31;4.88;;;4.47;;
5999;SDS011;3028;49.468;7.694;2022-12-07T12:04:30;4.63;;;4.10;;
5999;SDS011;3028;49.468;7.694;2022-12-07T12:06:33;7.72;;;5.63;;
5999;SDS011;3028;49.468;7.694;2022-12-07T12:08:38;5.55;;;4.97;;
5999;SDS011;3028;49.468;7.694;2022-12-07T12:13:39;5.32;;;3.95;;
5999;SDS011;3028;49.468;7.694;2022-12-07T12:19:09;4.85;;;4.38;;
5999;SDS011;3028;49.468;7.694;2022-12-07T12:21:20;3.95;;;3.55;;
5999;SDS011;3028;49.468;7.694;2022-12-07T12:23:44;4.57;;;3.92;;
5999;SDS011;3028;49.468;7.694;2022-12-07T12:25:49;4.85;;;4.43;;
5999;SDS011;3028;49.468;7.694;2022-12-07T12:27:53;4.50;;;4.10;;
5999;SDS011;3028;49.468;7.694;2022-12-07T12:29:59;4.60;;;4.13;;
5999;SDS011;3028;49.468;7.694;2022-12-07T12:32:13;3.38;;;3.08;;
5999;SDS011;3028;49.468;7.694;2022-12-07T12:38:20;3.95;;;3.55;;
5999;SDS011;3028;49.468;7.694;2022-12-07T12:39:34;3.05;;;2.75;;
5999;SDS011;3028;49.468;7.694;2022-12-07T12:44:01;3.45;;;3.15;;
5999;SDS011;3028;49.468;7.694;2022-12-07T12:48:35;4.15;;;3.75;;
5999;SDS011;3028;49.468;7.694;2022-12-07T12:50:38;3.72;;;3.42;;
5999;SDS011;3028;49.468;7.694;2022-12-07T13:04:28;4.00;;;3.63;;
5999;SDS011;3028;49.468;7.694;2022-12-07T13:06:36;4.38;;;3.97;;
5999;SDS011;3028;49.468;7.694;2022-12-07T13:08:40;2.97;;;2.78;;
5999;SDS011;3028;49.468;7.694;2022-12-07T13:10:43;3.10;;;2.90;;
5999;SDS011;3028;49.468;7.694;2022-12-07T13:15:22;3.95;;;3.38;;
5999;SDS011;3028;49.468;7.694;2022-12-07T13:21:43;3.78;;;3.13;;
5999;SDS011;3028;49.468;7.694;2022-12-07T13:26:00;3.45;;;3.20;;
5999;SDS011;3028;49.468;7.694;2022-12-07T13:28:24;3.03;;;2.75;;
5999;SDS011;3028;49.468;7.694;2022-12-07T13:30:29;3.58;;;3.20;;
5999;SDS011;3028;49.468;7.694;2022-12-07T13:32:31;4.32;;;3.90;;
5999;SDS011;3028;49.468;7.694;2022-12-07T13:36:43;3.35;;;2.80;;
5999;SDS011;3028;49.468;7.694;2022-12-07T13:38:50;3.65;;;3.22;;
5999;SDS011;3028;49.468;7.694;2022-12-07T13:41:00;3.17;;;2.88;;
5999;SDS011;3028;49.468;7.694;2022-12-07T13:43:12;3.88;;;3.20;;
5999;SDS011;3028;49.468;7.694;2022-12-07T13:45:23;3.25;;;2.92;;
5999;SDS011;3028;49.468;7.694;2022-12-07T13:47:54;3.38;;;2.80;;
5999;SDS011;3028;49.468;7.694;2022-12-07T13:49:57;4.20;;;3.80;;
5999;SDS011;3028;49.468;7.694;2022-12-07T13:54:30;2.90;;;2.28;;
5999;SDS011;3028;49.468;7.694;2022-12-07T13:56:32;3.17;;;2.88;;
5999;SDS011;3028;49.468;7.694;2022-12-07T13:58:35;6.38;;;3.47;;
5999;SDS011;3028;49.468;7.694;2022-12-07T14:00:37;5.35;;;3.42;;
5999;SDS011;3028;49.468;7.694;2022-12-07T14:02:57;3.72;;;3.42;;
5999;SDS011;3028;49.468;7.694;2022-12-07T14:05:12;3.55;;;3.25;;
5999;SDS011;3028;49.468;7.694;2022-12-07T14:07:24;4.93;;;4.32;;
5999;SDS011;3028;49.468;7.694;2022-12-07T14:09:28;4.88;;;2.78;;
5999;SDS011;3028;49.468;7.694;2022-12-07T14:11:31;4.32;;;3.53;;
5999;SDS011;3028;49.468;7.694;2022-12-07T14:22:36;3.55;;;3.20;;
5999;SDS011;3028;49.468;7.694;2022-12-07T14:24:42;3.08;;;2.70;;
5999;SDS011;3028;49.468;7.694;2022-12-07T14:26:45;2.97;;;2.78;;
5999;SDS011;3028;49.468;7.694;2022-12-07T14:28:48;3.95;;;3.33;;
5999;SDS011;3028;49.468;7.694;2022-12-07T14:30:49;3.22;;;2.92;;
5999;SDS011;3028;49.468;7.694;2022-12-07T14:32:53;4.45;;;3.25;;
5999;SDS011;3028;49.468;7.694;2022-12-07T14:34:57;3.53;;;3.22;;
5999;SDS011;3028;49.468;7.694;2022-12-07T14:37:01;5.18;;;3.83;;
5999;SDS011;3028;49.468;7.694;2022-12-07T14:39:03;4.22;;;3.63;;
5999;SDS011;3028;49.468;7.694;2022-12-07T14:41:14;4.53;;;3.50;;
5999;SDS011;3028;49.468;7.694;2022-12-07T14:43:35;3.15;;;2.85;;
5999;SDS011;3028;49.468;7.694;2022-12-07T14:45:49;3.85;;;3.25;;
5999;SDS011;3028;49.468;7.694;2022-12-07T14:47:51;3.08;;;2.88;;
5999;SDS011;3028;49.468;7.694;2022-12-07T14:50:13;4.78;;;2.85;;
5999;SDS011;3028;49.468;7.694;2022-12-07T14:52:18;2.78;;;2.55;;
5999;SDS011;3028;49.468;7.694;2022-12-07T14:54:42;3.33;;;3.03;;
5999;SDS011;3028;49.468;7.694;2022-12-07T14:56:44;4.85;;;3.38;;
5999;SDS011;3028;49.468;7.694;2022-12-07T14:58:47;3.45;;;3.15;;
5999;SDS011;3028;49.468;7.694;2022-12-07T15:00:51;3.72;;;3.42;;
5999;SDS011;3028;49.468;7.694;2022-12-07T15:02:54;4.95;;;4.35;;